createdAt,value
2018-09-30T00:00:44.673Z,77.7
2018-09-30T00:05:38.943Z,77.6
2018-09-30T00:10:38.782Z,77.8
2018-09-30T00:15:39.118Z,78.2
2018-09-30T00:20:38.879Z,77.6
2018-09-30T00:25:39.014Z,78
2018-09-30T00:30:38.958Z,78.2
2018-09-30T00:35:39.024Z,78.2
2018-09-30T00:40:38.905Z,77.6
2018-09-30T00:45:39.093Z,76.9
2018-09-30T00:50:38.907Z,77.1
2018-09-30T00:55:38.938Z,77.1
2018-09-30T01:00:38.721Z,77.3
2018-09-30T01:05:38.690Z,77.1
2018-09-30T01:10:38.936Z,77.7
2018-09-30T01:15:39.025Z,77.5
2018-09-30T01:20:38.937Z,77.7
2018-09-30T01:25:38.845Z,78.1
2018-09-30T01:30:38.923Z,77.9
2018-09-30T01:35:38.912Z,78.6
2018-09-30T01:40:39.037Z,78.2
2018-09-30T01:45:38.839Z,78.4
2018-09-30T01:50:38.971Z,78.4
2018-09-30T01:55:38.636Z,78.2
2018-09-30T02:00:38.957Z,78.5
2018-09-30T02:05:38.760Z,78.4
2018-09-30T02:10:38.824Z,78.4
2018-09-30T02:15:38.591Z,78.4
2018-09-30T02:20:38.690Z,78.3
2018-09-30T02:25:38.959Z,78.6
2018-09-30T02:30:38.575Z,79.1
2018-09-30T02:35:38.853Z,79.2
2018-09-30T02:40:38.825Z,78.6
2018-09-30T02:45:38.661Z,78.9
2018-09-30T02:50:38.682Z,78.7
2018-09-30T02:55:38.852Z,78.7
2018-09-30T03:00:38.704Z,79.3
2018-09-30T03:05:38.740Z,79.2
2018-09-30T03:10:38.629Z,79.1
2018-09-30T03:15:38.875Z,79.5
2018-09-30T03:20:38.678Z,80.1
2018-09-30T03:25:38.770Z,79.9
2018-09-30T03:30:38.746Z,80.3
2018-09-30T03:35:38.640Z,79.7
2018-09-30T03:40:38.871Z,79.9
2018-09-30T03:45:38.711Z,79.8
2018-09-30T03:50:38.716Z,80.2
2018-09-30T03:55:38.468Z,79.7
2018-09-30T04:00:38.713Z,80.2
2018-09-30T04:05:38.476Z,79.9
2018-09-30T04:10:38.645Z,79.7
2018-09-30T04:15:38.547Z,80.6
2018-09-30T04:20:38.788Z,80.1
2018-09-30T04:25:38.440Z,80
2018-09-30T04:30:38.742Z,80.4
2018-09-30T04:35:38.569Z,80.1
2018-09-30T04:40:38.450Z,80.5
2018-09-30T04:45:38.531Z,80.7
2018-09-30T04:50:38.747Z,82.1
2018-09-30T04:55:38.404Z,81.4
2018-09-30T05:00:38.660Z,81.1
2018-09-30T05:05:38.522Z,81.2
2018-09-30T05:10:38.576Z,81.2
2018-09-30T05:15:38.509Z,81.2
2018-09-30T05:20:38.319Z,81.5
2018-09-30T05:25:38.604Z,80.9
2018-09-30T05:30:38.442Z,81.2
2018-09-30T05:35:38.393Z,81.2
2018-09-30T05:40:38.388Z,80.5
2018-09-30T05:45:38.474Z,81.3
2018-09-30T05:50:38.371Z,81.6
2018-09-30T05:55:38.337Z,81.9
2018-09-30T06:00:38.315Z,81.8
2018-09-30T06:05:38.484Z,82
2018-09-30T06:10:38.239Z,82.3
2018-09-30T06:15:38.312Z,82.5
2018-09-30T06:20:38.597Z,83.4
2018-09-30T06:25:38.292Z,84.3
2018-09-30T06:30:38.384Z,84.9
2018-09-30T06:35:38.228Z,84.5
2018-09-30T06:40:38.609Z,83.7
2018-09-30T06:45:38.545Z,83.3
2018-09-30T06:50:38.535Z,83.6
2018-09-30T06:55:38.471Z,83.3
2018-09-30T07:00:38.189Z,82.5
2018-09-30T07:05:38.236Z,81.5
2018-09-30T07:10:38.405Z,81.8
2018-09-30T07:15:38.167Z,79.4
2018-09-30T07:30:59.039Z,75.9
2018-09-30T07:35:40.591Z,74.7
2018-09-30T07:40:40.825Z,72.2
2018-09-30T07:45:42.481Z,71.4
2018-09-30T07:50:40.595Z,70.8
2018-09-30T07:55:40.828Z,70.3
2018-09-30T08:00:40.590Z,68.7
2018-09-30T08:05:41.066Z,69.1
2018-09-30T08:10:40.696Z,67.4
2018-09-30T08:15:41.167Z,65.4
2018-09-30T08:20:40.688Z,63.6
2018-09-30T08:25:40.937Z,60.8
2018-09-30T08:30:41.055Z,62.3
2018-09-30T08:35:41.265Z,61.8
2018-09-30T08:40:40.545Z,60.9
2018-09-30T08:45:41.069Z,60.1
2018-09-30T08:50:40.934Z,59.8
2018-09-30T08:55:40.547Z,59.9
2018-09-30T09:00:41.311Z,60
2018-09-30T09:05:41.139Z,59.6
2018-09-30T09:10:40.869Z,60.6
2018-09-30T09:15:40.747Z,61.3
2018-09-30T09:20:40.464Z,62.2
2018-09-30T09:25:40.888Z,62.1
2018-09-30T09:30:40.805Z,63.6
2018-09-30T09:35:40.919Z,62.5
2018-09-30T09:40:40.745Z,64
2018-09-30T09:45:40.975Z,63.2
2018-09-30T09:50:40.630Z,63.2
2018-09-30T09:55:40.774Z,62.5
2018-09-30T10:00:40.763Z,61.8
2018-09-30T10:05:40.804Z,62.5
2018-09-30T10:10:40.718Z,61.8
2018-09-30T10:15:40.861Z,61.4
2018-09-30T10:20:40.491Z,62.3
2018-09-30T10:25:40.534Z,61.9
2018-09-30T10:30:40.482Z,63.3
2018-09-30T10:35:40.455Z,63.8
2018-09-30T10:40:40.332Z,63.6
2018-09-30T10:45:40.611Z,62.8
2018-09-30T10:50:40.264Z,61.8
2018-09-30T10:55:40.525Z,62.5
2018-09-30T11:00:40.656Z,61.9
2018-09-30T11:05:40.601Z,60.8
2018-09-30T11:10:40.419Z,61.8
2018-09-30T11:15:40.449Z,60.3
2018-09-30T11:20:40.335Z,58.5
2018-09-30T11:25:41.709Z,58.3
2018-09-30T11:30:40.955Z,57.4
2018-09-30T11:35:40.324Z,58.3
2018-09-30T11:40:40.613Z,56.2
2018-09-30T11:45:40.181Z,57.8
2018-09-30T11:50:40.828Z,57.5
2018-09-30T11:55:40.586Z,56.7
2018-09-30T12:00:40.888Z,54.1
2018-09-30T12:05:40.430Z,56.2
2018-09-30T12:10:40.454Z,56.7
2018-09-30T12:15:40.491Z,57
2018-09-30T12:20:40.501Z,57
2018-09-30T12:25:41.509Z,56.6
2018-09-30T12:30:40.213Z,52.4
2018-09-30T12:35:40.145Z,52.3
2018-09-30T12:40:40.417Z,50.5
2018-09-30T12:45:40.329Z,53.2
2018-09-30T12:50:40.379Z,54
2018-09-30T12:55:40.084Z,53.9
2018-09-30T13:00:41.117Z,51.7
2018-09-30T13:05:40.710Z,49.2
2018-09-30T13:10:40.243Z,48.1
2018-09-30T13:15:40.699Z,51.7
2018-09-30T13:20:40.519Z,53.7
2018-09-30T13:25:40.493Z,53.1
2018-09-30T13:30:40.140Z,54.1
2018-09-30T13:35:40.441Z,54
2018-09-30T13:40:40.520Z,52.7
2018-09-30T13:45:40.288Z,53.3
2018-09-30T13:50:40.057Z,52.6
2018-09-30T13:55:40.114Z,50.5
2018-09-30T14:00:40.890Z,51.7
2018-09-30T14:05:40.319Z,51.8
2018-09-30T14:10:40.117Z,50.8
2018-09-30T14:15:40.319Z,50.3
2018-09-30T14:20:40.322Z,53.9
2018-09-30T14:25:40.247Z,52.9
2018-09-30T14:30:40.141Z,58.1
2018-09-30T14:35:39.962Z,57.7
2018-09-30T14:40:40.104Z,57.1
2018-09-30T14:45:40.308Z,54.9
2018-09-30T14:50:40.262Z,55.9
2018-09-30T14:55:40.473Z,55.4
2018-09-30T15:00:40.211Z,55.8
2018-09-30T15:05:40.332Z,54.6
2018-09-30T15:10:40.281Z,55.1
2018-09-30T15:15:39.966Z,54.7
2018-09-30T15:20:40.129Z,54.1
2018-09-30T15:25:40.243Z,55.3
2018-09-30T15:30:40.284Z,57
2018-09-30T15:35:40.126Z,54.8
2018-09-30T15:40:40.048Z,54.7
2018-09-30T15:45:39.880Z,57
2018-09-30T15:50:39.942Z,57.5
2018-09-30T15:55:40.047Z,56.7
2018-09-30T16:00:40.185Z,56.4
2018-09-30T16:05:39.868Z,56.6
2018-09-30T16:10:39.953Z,58.3
2018-09-30T16:15:39.737Z,58.5
2018-09-30T16:20:40.050Z,58.6
2018-09-30T16:25:39.852Z,59.6
2018-09-30T16:30:39.900Z,60.9
2018-09-30T16:35:39.763Z,61.9
2018-09-30T16:40:40.588Z,62.4
2018-09-30T16:45:40.160Z,61.8
2018-09-30T16:50:40.482Z,61.3
2018-09-30T16:55:39.910Z,61.4
2018-09-30T17:00:40.207Z,61.9
2018-09-30T17:05:39.738Z,62.5
2018-09-30T17:10:40.224Z,62.8
2018-09-30T17:15:39.798Z,62.8
2018-09-30T17:20:40.066Z,63.8
2018-09-30T17:25:40.105Z,64.1
2018-09-30T17:30:41.154Z,64.7
2018-09-30T17:35:39.933Z,65.5
2018-09-30T17:40:39.764Z,65.8
2018-09-30T17:45:39.986Z,67.1
2018-09-30T17:50:39.952Z,67.2
2018-09-30T17:55:40.145Z,67
2018-09-30T18:00:39.651Z,67.2
2018-09-30T18:05:39.758Z,67.6
2018-09-30T18:10:39.962Z,68.2
2018-09-30T18:15:39.599Z,70.1
2018-09-30T18:20:39.729Z,75.2
2018-09-30T18:25:39.884Z,74.8
2018-09-30T18:30:39.907Z,77.1
2018-09-30T18:35:40.272Z,77.2
2018-09-30T18:40:39.891Z,78.2
2018-09-30T18:45:39.729Z,76.8
2018-09-30T18:50:39.693Z,77.1
2018-09-30T18:55:39.649Z,76.6
2018-09-30T19:00:40.031Z,76.1
2018-09-30T19:05:39.734Z,76.1
2018-09-30T19:10:39.706Z,76.9
2018-09-30T19:15:39.973Z,76.3
2018-09-30T19:20:40.069Z,76.7
2018-09-30T19:25:39.987Z,74.1
2018-09-30T19:30:39.562Z,73.9
2018-09-30T19:35:39.557Z,71.1
2018-09-30T19:40:39.490Z,70.7
2018-09-30T19:45:39.772Z,71.1
2018-09-30T19:50:39.491Z,70.5
2018-09-30T19:55:39.397Z,69.8
2018-09-30T20:00:39.695Z,69.2
2018-09-30T20:05:39.632Z,70.3
2018-09-30T20:10:39.748Z,70.7
2018-09-30T20:15:39.603Z,71.1
2018-09-30T20:20:39.588Z,70.6
2018-09-30T20:25:39.705Z,70.9
2018-09-30T20:30:39.535Z,70.8
2018-09-30T20:35:39.458Z,69.7
2018-09-30T20:40:39.505Z,70.7
2018-09-30T20:45:39.410Z,69.9
2018-09-30T20:50:39.335Z,69.3
2018-09-30T20:55:39.819Z,70.1
2018-09-30T21:00:40.870Z,70
2018-09-30T21:05:39.437Z,69.3
2018-09-30T21:10:39.716Z,69.5
2018-09-30T21:15:39.626Z,69
2018-09-30T21:20:39.609Z,67.8
2018-09-30T21:25:39.666Z,64.7
2018-09-30T21:30:39.554Z,65.7
2018-09-30T21:35:39.239Z,64.7
2018-09-30T21:40:39.640Z,64.9
2018-09-30T21:45:39.681Z,64.4
2018-09-30T21:50:39.519Z,63.8
2018-09-30T21:55:39.328Z,65.2
2018-09-30T22:00:39.636Z,64.8
2018-09-30T22:05:39.597Z,63.6
2018-09-30T22:10:39.556Z,65
2018-09-30T22:15:39.258Z,67.2
2018-09-30T22:20:39.376Z,68.5
2018-09-30T22:25:39.513Z,69.4
2018-09-30T22:30:39.309Z,69.6
2018-09-30T22:35:40.109Z,70.6
2018-09-30T22:40:39.488Z,71.2
2018-09-30T22:45:39.733Z,71.3
2018-09-30T22:50:39.425Z,72.5
2018-09-30T22:55:39.595Z,72.5
2018-09-30T23:00:39.319Z,72.5
2018-09-30T23:05:39.269Z,73.4
2018-09-30T23:10:39.354Z,73.6
2018-09-30T23:15:39.261Z,73.9
2018-09-30T23:20:39.396Z,74.2
2018-09-30T23:25:39.406Z,73.1
2018-09-30T23:30:39.481Z,72.5
2018-09-30T23:35:39.547Z,72.8
2018-09-30T23:40:39.273Z,71.1
2018-09-30T23:45:39.437Z,70.4
2018-09-30T23:50:39.311Z,67.6
2018-09-30T23:58:03.896Z,66.7
